Time;durP1;ratioP1;P1;durP2;ratioP2;P2;SDS_P1;SDS_P2;PMS_P1;PMS_P2;Temp;Humidity;BMP_temperature;BMP_pressure;BME280_temperature;BME280_humidity;BME280_pressure;Samples;Min_cycle;Max_cycle;Signal;HPM_P1;HPM_P2
2022/09/11 00:01:17;;;;;;;2.40;1.93;;;14.80;99.90;;;;;;5030976;28;20682;-85
2022/09/11 00:03:45;;;;;;;3.20;2.27;;;14.80;99.90;;;;;;5031198;28;20180;-84
2022/09/11 00:06:14;;;;;;;2.47;2.27;;;14.90;99.90;;;;;;5030878;28;20207;-85
2022/09/11 00:08:42;;;;;;;2.43;2.30;;;14.80;99.90;;;;;;5030966;28;20180;-84
2022/09/11 00:11:17;;;;;;;2.60;2.00;;;14.70;99.90;;;;;;5031682;28;20259;-85
2022/09/11 00:13:49;;;;;;;2.33;2.03;;;14.80;99.90;;;;;;5042539;28;20204;-83
2022/09/11 00:16:22;;;;;;;5.00;2.07;;;14.80;99.90;;;;;;5055106;28;20188;-87
2022/09/11 00:18:49;;;;;;;3.03;2.10;;;14.80;99.90;;;;;;5040607;28;20624;-84
2022/09/11 00:21:16;;;;;;;2.10;2.00;;;14.70;99.90;;;;;;5031536;28;20181;-84
2022/09/11 00:23:45;;;;;;;2.27;1.87;;;14.70;99.90;;;;;;5031068;28;20299;-84
2022/09/11 00:26:11;;;;;;;2.53;2.33;;;14.70;99.90;;;;;;5029749;28;20590;-84
2022/09/11 00:28:37;;;;;;;3.70;2.03;;;14.60;99.90;;;;;;5031421;28;20179;-85
2022/09/11 00:31:06;;;;;;;2.20;2.03;;;14.60;99.90;;;;;;5031093;28;20587;-84
2022/09/11 00:33:34;;;;;;;1.93;1.73;;;14.60;99.90;;;;;;5030637;28;20300;-84
2022/09/11 00:36:06;;;;;;;1.90;1.80;;;14.60;99.90;;;;;;5030719;28;20610;-84
2022/09/11 00:38:34;;;;;;;2.33;2.00;;;14.50;99.90;;;;;;5031057;28;20494;-84
2022/09/11 00:41:02;;;;;;;2.40;1.73;;;14.50;99.90;;;;;;5031286;28;20187;-84
2022/09/11 00:43:49;;;;;;;1.83;1.73;;;14.50;99.90;;;;;;5030406;28;20640;-83
2022/09/11 00:46:15;;;;;;;4.07;2.10;;;14.60;99.90;;;;;;5030952;28;20219;-84
2022/09/11 00:48:47;;;;;;;1.87;1.87;;;14.60;99.90;;;;;;5030184;28;20415;-84
2022/09/11 00:51:13;;;;;;;2.43;2.13;;;14.60;99.90;;;;;;5030514;28;20640;-84
2022/09/11 00:53:38;;;;;;;2.23;1.93;;;14.50;99.90;;;;;;5029299;28;20223;-85
2022/09/11 00:56:08;;;;;;;1.83;1.73;;;14.50;99.90;;;;;;5030583;28;20235;-84
2022/09/11 00:58:38;;;;;;;4.00;1.90;;;14.50;99.90;;;;;;5030517;28;20177;-85
2022/09/11 01:01:04;;;;;;;3.47;1.60;;;14.50;99.90;;;;;;5035901;28;20175;-84
2022/09/11 01:03:31;;;;;;;4.83;2.07;;;14.50;99.90;;;;;;5035109;28;20176;-83
2022/09/11 01:05:58;;;;;;;2.87;2.00;;;14.50;99.90;;;;;;5034549;28;20247;-84
2022/09/11 01:08:24;;;;;;;3.53;2.00;;;14.60;99.90;;;;;;5031984;28;20191;-87
2022/09/11 01:11:02;;;;;;;2.83;1.97;;;14.50;99.90;;;;;;5034717;28;20230;-87
2022/09/11 01:13:49;;;;;;;2.53;1.90;;;14.50;99.90;;;;;;5034735;28;20203;-84
2022/09/11 01:16:34;;;;;;;2.00;1.90;;;14.40;99.90;;;;;;5034100;28;20148;-84
2022/09/11 01:19:28;;;;;;;3.70;1.90;;;14.40;99.90;;;;;;5033998;28;20176;-85
2022/09/11 01:22:03;;;;;;;2.67;1.90;;;14.30;99.90;;;;;;5032811;28;20172;-85
2022/09/11 01:25:07;;;;;;;2.03;1.80;;;14.30;99.90;;;;;;5035441;28;20156;-84
2022/09/11 01:27:57;;;;;;;2.57;1.70;;;14.30;99.90;;;;;;5034023;28;20172;-87
2022/09/11 01:30:31;;;;;;;2.50;2.00;;;14.20;99.90;;;;;;5033787;28;20164;-87
2022/09/11 01:33:16;;;;;;;3.07;1.93;;;14.10;99.90;;;;;;5034303;28;20215;-88
2022/09/11 01:36:08;;;;;;;1.90;1.80;;;14.20;99.90;;;;;;5033822;28;20230;-88
2022/09/11 01:38:46;;;;;;;2.17;1.93;;;14.20;99.90;;;;;;5037632;28;20247;-84
2022/09/11 01:41:30;;;;;;;3.50;1.90;;;14.30;99.90;;;;;;5039115;28;20169;-86
2022/09/11 01:44:02;;;;;;;2.00;1.70;;;14.20;99.90;;;;;;5034376;28;20161;-87
2022/09/11 01:46:32;;;;;;;2.83;1.97;;;14.20;99.90;;;;;;5033847;28;20195;-88
2022/09/11 01:49:27;;;;;;;2.73;2.00;;;14.20;99.90;;;;;;5033981;28;20533;-84
2022/09/11 01:51:57;;;;;;;2.03;1.90;;;14.10;99.90;;;;;;5048850;28;20200;-84
2022/09/11 01:54:30;;;;;;;1.80;1.70;;;13.90;99.90;;;;;;5058650;28;20510;-83
2022/09/11 01:57:04;;;;;;;2.23;2.00;;;13.90;99.90;;;;;;5038587;28;20160;-87
2022/09/11 01:59:39;;;;;;;2.40;2.10;;;13.80;99.90;;;;;;5034035;28;20221;-86
2022/09/11 02:02:10;;;;;;;1.80;1.70;;;13.80;99.90;;;;;;5033410;28;20588;-90
2022/09/11 02:04:54;;;;;;;2.43;2.00;;;13.80;99.90;;;;;;5033622;28;20157;-89
2022/09/11 02:07:29;;;;;;;3.17;2.03;;;13.90;99.90;;;;;;5033320;28;20152;-86
2022/09/11 02:10:00;;;;;;;4.43;2.50;;;13.90;99.90;;;;;;5033625;28;20165;-85
2022/09/11 02:12:39;;;;;;;3.67;2.00;;;13.90;99.90;;;;;;5033182;28;20194;-84
2022/09/11 02:15:07;;;;;;;2.03;1.93;;;14.00;99.90;;;;;;5033647;28;20200;-86
2022/09/11 02:17:44;;;;;;;1.90;1.80;;;14.00;99.90;;;;;;5034242;28;20231;-90
2022/09/11 02:20:10;;;;;;;2.40;2.13;;;14.10;99.90;;;;;;5032912;28;20279;-84
2022/09/11 02:22:36;;;;;;;1.97;1.87;;;14.20;99.90;;;;;;5034278;28;20196;-84
2022/09/11 02:25:03;;;;;;;3.63;1.70;;;14.10;99.90;;;;;;5037471;28;20169;-84
2022/09/11 02:27:30;;;;;;;3.87;1.80;;;14.10;99.90;;;;;;5034402;28;20719;-84
2022/09/11 02:29:58;;;;;;;3.67;1.67;;;14.00;99.90;;;;;;5031581;28;20538;-84
2022/09/11 02:32:25;;;;;;;5.37;1.50;;;14.10;99.90;;;;;;5032791;28;20180;-84
2022/09/11 02:34:54;;;;;;;2.10;1.20;;;14.00;99.90;;;;;;5032509;28;20679;-84
2022/09/11 02:37:46;;;;;;;2.60;1.77;;;13.90;99.90;;;;;;5032491;28;20248;-85
2022/09/11 02:40:47;;;;;;;2.10;1.37;;;14.10;99.90;;;;;;5032763;28;20538;-83
2022/09/11 02:43:32;;;;;;;1.67;1.57;;;14.10;99.90;;;;;;5032622;28;20199;-84
2022/09/11 02:46:30;;;;;;;2.00;1.90;;;14.10;99.90;;;;;;5032520;28;20236;-87
2022/09/11 02:49:25;;;;;;;3.07;1.80;;;14.10;99.90;;;;;;5030672;28;20193;-85
2022/09/11 02:52:19;;;;;;;1.70;1.60;;;14.10;99.90;;;;;;5032492;28;20183;-84
2022/09/11 02:54:58;;;;;;;3.33;1.40;;;14.10;99.90;;;;;;5032426;28;20258;-84
2022/09/11 02:57:50;;;;;;;1.90;1.40;;;14.20;99.90;;;;;;5032907;28;20523;-87
2022/09/11 03:00:16;;;;;;;3.13;1.30;;;14.10;99.90;;;;;;5028767;28;20601;-88
2022/09/11 03:02:43;;;;;;;1.30;1.30;;;14.10;99.90;;;;;;5033669;28;20259;-86
2022/09/11 03:05:10;;;;;;;1.53;1.43;;;14.10;99.90;;;;;;5038584;28;20169;-90
2022/09/11 03:07:35;;;;;;;2.17;2.00;;;14.00;99.90;;;;;;5032838;28;20164;-90
2022/09/11 03:10:02;;;;;;;1.30;1.30;;;14.10;99.90;;;;;;5036505;28;20311;-86
2022/09/11 03:12:28;;;;;;;1.57;1.10;;;14.20;99.90;;;;;;5036961;28;20180;-90
2022/09/11 03:14:53;;;;;;;2.17;1.50;;;14.30;99.90;;;;;;5037839;28;20218;-87
2022/09/11 03:17:20;;;;;;;1.53;1.33;;;14.20;99.90;;;;;;5032527;28;20176;-90
2022/09/11 03:19:46;;;;;;;1.90;1.20;;;14.30;99.90;;;;;;5031557;28;20176;-90
2022/09/11 03:22:13;;;;;;;2.00;1.50;;;14.30;99.90;;;;;;5030827;28;20250;-88
2022/09/11 03:24:39;;;;;;;1.70;1.30;;;14.30;99.90;;;;;;5032225;28;20192;-89
2022/09/11 03:27:05;;;;;;;2.00;1.50;;;14.40;99.90;;;;;;5031773;28;20211;-88
2022/09/11 03:29:32;;;;;;;1.60;1.50;;;14.30;99.90;;;;;;5040800;28;20188;-85
2022/09/11 03:31:59;;;;;;;2.33;1.40;;;14.30;99.90;;;;;;5056649;28;20163;-85
2022/09/11 03:34:25;;;;;;;2.60;1.37;;;14.20;99.90;;;;;;5042495;28;20531;-89
2022/09/11 03:36:52;;;;;;;6.10;1.50;;;14.20;99.90;;;;;;5030688;28;20231;-87
2022/09/11 03:39:18;;;;;;;3.50;1.60;;;14.10;99.90;;;;;;5030294;28;20308;-88
2022/09/11 03:41:43;;;;;;;1.70;1.50;;;14.10;99.90;;;;;;5030203;28;20798;-88
2022/09/11 03:44:11;;;;;;;2.43;1.83;;;14.10;99.90;;;;;;5034254;28;20535;-85
2022/09/11 03:46:37;;;;;;;1.60;1.50;;;14.10;99.90;;;;;;5036915;28;20172;-87
2022/09/11 03:49:05;;;;;;;1.80;1.70;;;14.10;99.90;;;;;;5031774;28;20302;-86
2022/09/11 03:51:31;;;;;;;2.80;1.60;;;14.00;99.90;;;;;;5031856;28;20541;-85
2022/09/11 03:54:00;;;;;;;2.20;1.77;;;14.00;99.90;;;;;;5031056;28;20196;-84
2022/09/11 03:56:27;;;;;;;4.03;1.97;;;14.00;99.90;;;;;;5030951;28;20207;-84
2022/09/11 03:58:57;;;;;;;1.67;1.57;;;14.00;99.90;;;;;;5031131;28;20168;-84
2022/09/11 04:01:23;;;;;;;2.50;1.73;;;14.00;99.90;;;;;;5031060;28;20188;-84
2022/09/11 04:03:49;;;;;;;3.73;1.60;;;14.00;99.90;;;;;;5031283;28;20181;-89
2022/09/11 04:06:15;;;;;;;3.40;2.00;;;14.00;99.90;;;;;;5030131;28;20183;-85
2022/09/11 04:08:41;;;;;;;2.63;1.67;;;14.10;99.90;;;;;;5031531;28;20176;-88
2022/09/11 04:11:10;;;;;;;1.50;1.40;;;14.10;99.90;;;;;;5037641;28;20203;-89
2022/09/11 04:13:38;;;;;;;1.30;1.30;;;14.00;99.90;;;;;;5040845;28;20542;-85
2022/09/11 04:16:07;;;;;;;2.03;1.60;;;14.00;99.90;;;;;;5035133;28;20267;-85
2022/09/11 04:18:36;;;;;;;1.87;1.30;;;14.00;99.90;;;;;;5031241;28;20816;-89
2022/09/11 04:21:06;;;;;;;1.93;1.30;;;14.00;99.90;;;;;;5031139;28;20227;-90
2022/09/11 04:23:32;;;;;;;1.53;1.43;;;14.00;99.90;;;;;;5031609;28;20236;-88
2022/09/11 04:25:59;;;;;;;2.10;1.13;;;14.10;99.90;;;;;;5030980;28;20200;-88
2022/09/11 04:28:31;;;;;;;2.63;1.53;;;14.10;99.90;;;;;;5030846;28;20172;-87
2022/09/11 04:31:02;;;;;;;1.43;1.40;;;14.20;99.90;;;;;;5031051;28;20205;-88
2022/09/11 04:33:28;;;;;;;3.63;1.47;;;14.20;99.90;;;;;;5031433;28;20687;-89
2022/09/11 04:35:54;;;;;;;1.50;1.40;;;14.20;99.90;;;;;;5029031;28;20362;-88
2022/09/11 04:38:21;;;;;;;1.43;1.10;;;14.20;99.90;;;;;;5030875;28;20188;-90
2022/09/11 04:40:48;;;;;;;3.30;1.50;;;14.20;99.90;;;;;;5029639;28;20222;-89
2022/09/11 04:43:16;;;;;;;2.23;2.03;;;14.10;99.90;;;;;;5030948;28;20176;-89
2022/09/11 04:45:42;;;;;;;1.50;1.50;;;14.10;99.90;;;;;;5032003;28;20504;-85
2022/09/11 04:48:08;;;;;;;3.90;1.60;;;14.10;99.90;;;;;;5029391;28;20624;-84
2022/09/11 04:50:34;;;;;;;1.90;1.77;;;14.20;99.90;;;;;;5031416;28;20229;-85
2022/09/11 04:52:59;;;;;;;2.80;1.50;;;14.20;99.90;;;;;;5030581;28;20234;-85
2022/09/11 04:55:25;;;;;;;2.87;1.40;;;14.20;99.90;;;;;;5030421;28;20806;-86
2022/09/11 04:57:52;;;;;;;1.63;1.53;;;14.20;99.90;;;;;;5028954;28;20194;-85
2022/09/11 05:00:19;;;;;;;2.33;1.50;;;14.20;99.90;;;;;;5030797;28;20628;-85
2022/09/11 05:02:46;;;;;;;2.20;1.40;;;14.20;99.90;;;;;;5031449;28;20173;-85
2022/09/11 05:05:12;;;;;;;1.60;1.43;;;14.10;99.90;;;;;;5032681;28;20659;-86
2022/09/11 05:07:38;;;;;;;2.17;1.23;;;14.00;99.90;;;;;;5044317;28;20168;-88
2022/09/11 05:10:04;;;;;;;1.40;1.30;;;14.10;99.90;;;;;;5052430;28;20175;-84
2022/09/11 05:12:30;;;;;;;1.80;1.10;;;14.20;99.90;;;;;;5038573;28;20609;-88
2022/09/11 05:14:57;;;;;;;1.70;1.23;;;14.30;99.90;;;;;;5029911;28;20536;-86
2022/09/11 05:17:22;;;;;;;1.30;1.20;;;14.30;99.90;;;;;;5030100;28;20596;-88
2022/09/11 05:19:48;;;;;;;2.37;1.20;;;14.30;99.90;;;;;;5028693;28;20267;-88
2022/09/11 05:22:14;;;;;;;4.60;1.33;;;14.30;99.90;;;;;;5028610;28;20180;-86
2022/09/11 05:24:40;;;;;;;2.93;1.57;;;14.20;99.90;;;;;;5030307;28;20169;-88
2022/09/11 05:27:08;;;;;;;2.33;1.30;;;14.30;99.90;;;;;;5030257;28;20180;-90
2022/09/11 05:29:35;;;;;;;2.67;1.43;;;14.30;99.90;;;;;;5030120;28;20169;-87
2022/09/11 05:32:02;;;;;;;1.87;1.33;;;14.40;99.90;;;;;;5030080;28;20509;-86
2022/09/11 05:34:28;;;;;;;2.03;1.47;;;14.40;99.90;;;;;;5029808;28;20201;-85
2022/09/11 05:36:58;;;;;;;1.43;1.33;;;14.30;99.90;;;;;;5029541;28;20258;-84
2022/09/11 05:39:24;;;;;;;2.50;1.50;;;14.40;99.90;;;;;;5029516;28;20208;-85
2022/09/11 05:41:50;;;;;;;2.60;1.47;;;14.40;99.90;;;;;;5029599;28;20204;-84
2022/09/11 05:44:17;;;;;;;1.53;1.40;;;14.40;99.90;;;;;;5030046;28;20226;-85
2022/09/11 05:46:43;;;;;;;1.50;1.40;;;14.30;99.90;;;;;;5030312;28;20537;-85
2022/09/11 05:49:08;;;;;;;2.20;2.00;;;14.30;99.90;;;;;;5029656;28;20256;-85
2022/09/11 05:51:36;;;;;;;3.33;1.70;;;14.30;99.90;;;;;;5029757;28;20180;-86
2022/09/11 05:54:02;;;;;;;2.93;1.53;;;14.30;99.90;;;;;;5030304;28;20204;-86
2022/09/11 05:56:28;;;;;;;4.07;1.90;;;14.30;99.90;;;;;;5034441;28;20168;-84
2022/09/11 05:58:54;;;;;;;2.23;1.70;;;14.40;99.90;;;;;;5036320;28;20219;-85
2022/09/11 06:01:22;;;;;;;1.63;1.53;;;14.50;99.90;;;;;;5034945;28;20203;-86
2022/09/11 06:03:49;;;;;;;3.97;1.60;;;14.50;99.90;;;;;;5033609;28;20653;-87
2022/09/11 06:06:16;;;;;;;1.60;1.50;;;14.50;99.90;;;;;;5033243;28;20508;-89
2022/09/11 06:08:43;;;;;;;3.17;1.67;;;14.60;99.90;;;;;;5033487;28;20183;-88
2022/09/11 06:11:10;;;;;;;2.63;1.93;;;14.70;99.90;;;;;;5033002;28;20632;-85
2022/09/11 06:13:37;;;;;;;2.07;1.97;;;14.80;99.90;;;;;;5033070;28;20254;-87
2022/09/11 06:16:04;;;;;;;4.67;2.00;;;14.80;99.90;;;;;;5033274;28;20181;-88
2022/09/11 06:18:31;;;;;;;1.80;1.70;;;14.80;99.90;;;;;;5033349;28;20263;-88
2022/09/11 06:20:58;;;;;;;2.07;1.87;;;14.90;99.90;;;;;;5033815;28;20188;-88
2022/09/11 06:23:24;;;;;;;3.17;2.50;;;14.90;99.90;;;;;;5034595;28;20299;-90
2022/09/11 06:25:53;;;;;;;6.83;2.10;;;15.00;99.90;;;;;;5034795;28;20176;-89
2022/09/11 06:28:21;;;;;;;4.87;2.00;;;15.00;99.90;;;;;;5041003;28;20157;-87
2022/09/11 06:30:50;;;;;;;1.97;1.87;;;15.10;99.90;;;;;;5037277;28;20705;-89
2022/09/11 06:33:19;;;;;;;2.53;2.00;;;15.20;99.90;;;;;;5032973;28;20217;-87
2022/09/11 06:35:56;;;;;;;3.53;2.00;;;15.20;99.90;;;;;;5033731;28;20255;-86
2022/09/11 06:38:22;;;;;;;2.27;2.10;;;15.20;99.90;;;;;;5035176;28;20176;-89
2022/09/11 06:40:47;;;;;;;3.50;2.40;;;15.20;99.90;;;;;;5034208;28;20559;-86
2022/09/11 06:43:13;;;;;;;2.27;2.17;;;15.20;99.90;;;;;;5034459;28;20686;-90
2022/09/11 06:45:40;;;;;;;2.20;2.00;;;15.30;99.90;;;;;;5048181;28;20175;-84
2022/09/11 06:48:06;;;;;;;2.60;2.30;;;15.30;99.90;;;;;;5057259;28;20162;-84
2022/09/11 06:50:39;;;;;;;3.43;2.13;;;15.30;99.90;;;;;;5050435;28;20182;-91
2022/09/11 06:53:05;;;;;;;3.83;2.50;;;15.30;99.90;;;;;;5034341;28;20153;-90
2022/09/11 06:55:32;;;;;;;2.27;2.13;;;15.30;99.90;;;;;;5033049;28;20215;-89
2022/09/11 06:57:58;;;;;;;2.53;2.20;;;15.20;99.90;;;;;;5032802;28;20196;-87
2022/09/11 07:00:24;;;;;;;3.27;2.20;;;15.30;99.90;;;;;;5032449;28;20617;-86
2022/09/11 07:02:53;;;;;;;2.20;2.03;;;15.60;99.90;;;;;;5031124;28;20181;-89
2022/09/11 07:05:21;;;;;;;2.67;2.47;;;15.90;99.90;;;;;;5032269;28;20165;-86
2022/09/11 07:07:49;;;;;;;3.90;2.27;;;16.10;99.90;;;;;;5032192;28;20166;-87
2022/09/11 07:10:16;;;;;;;2.53;2.30;;;16.20;99.90;;;;;;5032142;28;20312;-87
2022/09/11 07:12:42;;;;;;;2.47;2.20;;;16.30;99.90;;;;;;5032091;28;20175;-88
2022/09/11 07:15:09;;;;;;;2.20;2.00;;;16.40;99.90;;;;;;5030622;28;20219;-90
2022/09/11 07:17:35;;;;;;;2.83;1.90;;;16.40;99.90;;;;;;5032272;28;20214;-87
2022/09/11 07:20:03;;;;;;;5.87;2.10;;;16.40;99.90;;;;;;5032107;28;20173;-86
2022/09/11 07:22:30;;;;;;;3.23;2.10;;;16.40;99.90;;;;;;5032005;28;20254;-86
2022/09/11 07:24:56;;;;;;;1.90;1.80;;;16.60;99.90;;;;;;5030399;28;20183;-87
2022/09/11 07:27:22;;;;;;;2.67;1.93;;;16.70;99.90;;;;;;5031863;28;20242;-87
2022/09/11 07:29:48;;;;;;;6.07;2.00;;;16.90;99.90;;;;;;5031627;28;20451;-84
2022/09/11 07:32:15;;;;;;;2.13;1.90;;;17.00;99.90;;;;;;5032149;28;20655;-84
2022/09/11 07:34:40;;;;;;;2.90;1.77;;;17.30;99.90;;;;;;5031917;28;20212;-84
2022/09/11 07:37:06;;;;;;;2.93;2.40;;;17.40;99.90;;;;;;5031476;28;20295;-86
2022/09/11 07:39:32;;;;;;;2.00;1.90;;;17.50;99.90;;;;;;5031527;28;20169;-85
2022/09/11 07:41:58;;;;;;;1.83;1.73;;;17.50;99.90;;;;;;5033219;28;20749;-88
2022/09/11 07:44:24;;;;;;;2.10;1.90;;;17.70;99.90;;;;;;5032897;28;20199;-84
2022/09/11 07:46:51;;;;;;;5.17;1.70;;;17.70;99.90;;;;;;5034005;28;20176;-89
2022/09/11 07:49:17;;;;;;;3.53;1.70;;;17.80;99.90;;;;;;5030480;28;20179;-88
2022/09/11 07:51:43;;;;;;;6.00;1.90;;;18.00;99.90;;;;;;5032796;28;20176;-89
2022/09/11 07:54:09;;;;;;;1.80;1.70;;;17.90;99.90;;;;;;5031912;28;20200;-90
2022/09/11 07:56:35;;;;;;;3.60;2.00;;;18.00;99.90;;;;;;5029929;28;20217;-90
2022/09/11 07:59:05;;;;;;;2.43;2.00;;;18.20;99.90;;;;;;5031673;28;20217;-91
2022/09/11 08:01:32;;;;;;;3.43;1.93;;;18.20;99.90;;;;;;5031848;28;20189;-89
2022/09/11 08:04:01;;;;;;;1.90;1.80;;;18.30;99.90;;;;;;5031783;28;20165;-86
2022/09/11 08:06:29;;;;;;;1.90;1.80;;;18.20;99.90;;;;;;5035145;28;20179;-87
2022/09/11 08:08:57;;;;;;;4.37;1.90;;;18.10;99.90;;;;;;5032223;28;20165;-90
2022/09/11 08:11:25;;;;;;;6.27;1.83;;;18.00;99.90;;;;;;5031774;28;20168;-86
2022/09/11 08:13:53;;;;;;;3.50;2.03;;;17.90;99.90;;;;;;5029567;28;20219;-87
2022/09/11 08:16:20;;;;;;;2.03;1.80;;;17.80;99.90;;;;;;5030682;28;20187;-88
2022/09/11 08:18:47;;;;;;;1.77;1.67;;;17.80;99.90;;;;;;5028795;28;20177;-87
2022/09/11 08:21:13;;;;;;;2.23;1.77;;;17.90;99.90;;;;;;5030882;28;20169;-85
2022/09/11 08:23:40;;;;;;;2.70;1.90;;;17.90;99.90;;;;;;5044081;28;20168;-84
2022/09/11 08:26:14;;;;;;;3.33;1.70;;;17.90;99.90;;;;;;5052019;28;20165;-84
2022/09/11 08:28:44;;;;;;;1.90;1.80;;;17.90;99.90;;;;;;5039694;28;20165;-87
2022/09/11 08:31:11;;;;;;;1.90;1.80;;;17.90;99.90;;;;;;5031107;28;20215;-85
2022/09/11 08:33:38;;;;;;;1.70;1.60;;;17.90;99.90;;;;;;5030815;28;20318;-84
2022/09/11 08:36:07;;;;;;;2.40;2.13;;;18.00;99.90;;;;;;5029104;28;20234;-85
2022/09/11 08:38:33;;;;;;;2.43;1.77;;;18.00;99.90;;;;;;5030770;28;20188;-84
2022/09/11 08:41:09;;;;;;;3.57;1.60;;;18.20;99.90;;;;;;5031278;28;20165;-85
2022/09/11 08:43:43;;;;;;;1.77;1.67;;;18.40;99.90;;;;;;5032765;28;20179;-85
2022/09/11 08:46:10;;;;;;;1.50;1.40;;;18.60;99.90;;;;;;5034060;28;20157;-85
2022/09/11 08:49:13;;;;;;;1.40;1.40;;;19.00;99.90;;;;;;5030678;28;20175;-87
2022/09/11 08:51:40;;;;;;;1.27;1.17;;;19.30;99.90;;;;;;5030548;28;20691;-90
2022/09/11 08:54:20;;;;;;;3.33;1.30;;;19.40;99.90;;;;;;5030487;28;20285;-86
2022/09/11 08:56:46;;;;;;;3.70;1.40;;;19.60;99.90;;;;;;5029558;28;20255;-88
2022/09/11 08:59:43;;;;;;;4.60;1.40;;;19.70;99.90;;;;;;5029347;28;20183;-88
2022/09/11 09:02:50;;;;;;;1.77;1.20;;;19.70;99.90;;;;;;5028952;28;20581;-85
2022/09/11 09:05:42;;;;;;;2.33;1.40;;;19.80;99.90;;;;;;5010422;28;20223;-86
2022/09/11 09:08:21;;;;;;;1.27;1.20;;;19.90;99.90;;;;;;5030093;28;20172;-85
2022/09/11 09:11:01;;;;;;;1.20;1.20;;;20.00;99.90;;;;;;5030476;28;20310;-85
2022/09/11 09:13:41;;;;;;;1.20;1.10;;;20.00;99.90;;;;;;5030171;28;20168;-84
2022/09/11 09:16:33;;;;;;;5.03;1.27;;;20.00;99.90;;;;;;5032993;28;20156;-86
2022/09/11 09:19:09;;;;;;;1.60;1.30;;;20.00;99.90;;;;;;5031711;28;20245;-85
2022/09/11 09:21:44;;;;;;;1.53;1.43;;;20.10;99.90;;;;;;5030564;28;20176;-86
2022/09/11 09:24:19;;;;;;;1.63;1.30;;;20.10;99.90;;;;;;5030096;28;20160;-84
2022/09/11 09:26:53;;;;;;;1.10;1.10;;;20.10;99.90;;;;;;5030674;28;20210;-85
2022/09/11 09:29:25;;;;;;;2.40;1.10;;;19.90;99.90;;;;;;5032589;28;20185;-87
2022/09/11 09:31:56;;;;;;;1.37;1.27;;;19.80;99.90;;;;;;5033145;28;20266;-86
2022/09/11 09:34:26;;;;;;;1.10;1.10;;;19.80;99.90;;;;;;5037529;28;20204;-86
2022/09/11 09:37:03;;;;;;;1.97;1.20;;;20.00;99.90;;;;;;5034175;28;20235;-87
2022/09/11 09:39:30;;;;;;;2.10;1.67;;;20.20;99.90;;;;;;5035094;28;20214;-87
2022/09/11 09:42:23;;;;;;;2.10;1.30;;;20.50;99.90;;;;;;5035618;28;20172;-88
2022/09/11 09:45:17;;;;;;;1.20;1.13;;;20.80;99.90;;;;;;5034052;28;20185;-88
2022/09/11 09:47:46;;;;;;;0.90;0.90;;;21.00;99.90;;;;;;5035082;28;20228;-90
2022/09/11 09:50:34;;;;;;;0.90;0.90;;;21.30;99.90;;;;;;5034643;28;20176;-90
2022/09/11 09:53:12;;;;;;;1.03;0.90;;;21.30;99.90;;;;;;5036633;28;20161;-85
2022/09/11 09:55:39;;;;;;;1.40;0.80;;;21.40;99.90;;;;;;5034186;28;20231;-85
2022/09/11 09:58:06;;;;;;;2.40;1.00;;;21.40;99.90;;;;;;5035624;28;20255;-87
2022/09/11 10:00:36;;;;;;;1.50;1.17;;;21.40;99.90;;;;;;5035222;28;20636;-90
2022/09/11 10:03:24;;;;;;;1.20;1.10;;;21.40;99.90;;;;;;5037811;28;20184;-87
2022/09/11 10:05:55;;;;;;;2.53;1.10;;;21.50;99.90;;;;;;5055548;28;20172;-85
2022/09/11 10:08:28;;;;;;;1.03;0.90;;;21.60;99.90;;;;;;5043296;28;20179;-85
2022/09/11 10:11:02;;;;;;;1.37;1.20;;;21.70;99.90;;;;;;5032024;28;20654;-85
2022/09/11 10:13:39;;;;;;;1.40;1.40;;;21.80;99.90;;;;;;5033338;28;20211;-84
2022/09/11 10:16:19;;;;;;;1.90;0.77;;;21.80;99.90;;;;;;5033380;28;20180;-86
2022/09/11 10:18:46;;;;;;;1.60;0.70;;;21.90;99.90;;;;;;5034248;28;20247;-86
2022/09/11 10:21:11;;;;;;;3.00;0.87;;;22.10;99.90;;;;;;5039921;28;20169;-85
2022/09/11 10:23:49;;;;;;;1.93;0.90;;;22.20;99.90;;;;;;5038432;28;20223;-84
2022/09/11 10:26:23;;;;;;;0.80;0.80;;;22.30;99.90;;;;;;5035390;28;20156;-85
2022/09/11 10:28:51;;;;;;;3.73;0.83;;;22.50;99.90;;;;;;5032768;28;20164;-85
2022/09/11 10:31:17;;;;;;;2.33;1.13;;;22.50;99.90;;;;;;5033189;28;20183;-85
2022/09/11 10:33:56;;;;;;;2.10;0.97;;;22.50;99.90;;;;;;5031726;28;20227;-86
2022/09/11 10:36:26;;;;;;;0.70;0.70;;;22.50;99.90;;;;;;5032822;28;20216;-87
2022/09/11 10:38:52;;;;;;;0.67;0.67;;;22.60;99.90;;;;;;5033185;28;20185;-88
2022/09/11 10:41:32;;;;;;;1.03;0.90;;;22.60;99.90;;;;;;5032081;28;20200;-85
2022/09/11 10:44:14;;;;;;;1.37;0.60;;;22.60;99.60;;;;;;5032951;28;20157;-89
2022/09/11 10:46:42;;;;;;;0.70;0.70;;;22.60;99.80;;;;;;5032955;28;20181;-88
2022/09/11 10:49:16;;;;;;;1.02;0.75;;;22.50;99.40;;;;;;5031025;28;20181;-89
2022/09/11 10:52:18;;;;;;;3.47;0.70;;;22.50;99.40;;;;;;5032570;28;20543;-88
2022/09/11 10:55:08;;;;;;;1.43;0.63;;;22.40;98.10;;;;;;5013088;28;20207;-89
2022/09/11 10:57:56;;;;;;;0.77;0.67;;;22.30;98.70;;;;;;5011693;28;20641;-90
2022/09/11 11:00:26;;;;;;;1.67;0.70;;;22.30;98.70;;;;;;5013018;28;20176;-89
2022/09/11 11:03:04;;;;;;;1.33;0.63;;;22.30;97.40;;;;;;5013067;28;20169;-87
2022/09/11 11:05:51;;;;;;;0.60;0.60;;;22.30;97.30;;;;;;5011214;28;20184;-85
2022/09/11 11:08:36;;;;;;;1.40;0.70;;;22.50;97.50;;;;;;5012265;28;20173;-86
2022/09/11 11:11:26;;;;;;;0.40;0.40;;;22.80;97.70;;;;;;5012930;28;20629;-88
2022/09/11 11:14:20;;;;;;;0.75;0.50;;;23.20;97.70;;;;;;5014583;28;20185;-85
2022/09/11 11:17:31;;;;;;;1.17;0.50;;;23.50;98.00;;;;;;5017986;28;20179;-89
2022/09/11 11:20:11;;;;;;;0.60;0.60;;;23.60;96.10;;;;;;5011922;28;20200;-85
2022/09/11 11:23:02;;;;;;;0.65;0.65;;;23.70;96.60;;;;;;5011095;28;20470;-86
2022/09/11 11:25:56;;;;;;;1.90;0.32;;;23.60;96.30;;;;;;4953593;29;20194;-88
2022/09/11 11:28:42;;;;;;;0.40;0.40;;;23.50;95.50;;;;;;4953754;28;20605;-90
2022/09/11 11:31:35;;;;;;;0.45;0.45;;;23.30;96.00;;;;;;4951670;29;20183;-89
2022/09/11 11:34:25;;;;;;;1.05;0.60;;;23.10;95.50;;;;;;4952429;29;20257;-86
2022/09/11 11:37:05;;;;;;;0.47;0.47;;;23.10;96.10;;;;;;4951714;29;20230;-85
2022/09/11 11:39:43;;;;;;;0.50;0.50;;;23.10;96.40;;;;;;4953064;29;20199;-86
2022/09/11 11:42:25;;;;;;;1.45;0.52;;;23.30;96.50;;;;;;4960243;29;20171;-85
2022/09/11 11:44:57;;;;;;;0.40;0.40;;;23.40;96.40;;;;;;4972750;29;20227;-86
2022/09/11 11:47:29;;;;;;;0.50;0.50;;;23.60;96.20;;;;;;4961088;29;20163;-89
2022/09/11 11:50:25;;;;;;;2.20;0.40;;;23.70;95.30;;;;;;4952612;29;20183;-87
2022/09/11 11:53:15;;;;;;;0.30;0.30;;;23.80;94.80;;;;;;4940262;28;20230;-88
2022/09/11 11:56:27;;;;;;;1.20;0.60;;;23.80;95.00;;;;;;4962184;28;20217;-90
2022/09/11 11:59:22;;;;;;;0.90;0.40;;;23.90;94.80;;;;;;4992381;28;20203;-86
2022/09/11 12:02:08;;;;;;;0.40;0.40;;;23.90;94.10;;;;;;4992632;28;20670;-89
2022/09/11 12:04:52;;;;;;;0.43;0.43;;;23.90;94.80;;;;;;4990351;28;20192;-90
2022/09/11 12:07:21;;;;;;;0.30;0.30;;;24.00;94.50;;;;;;4992872;28;20555;-89
2022/09/11 12:09:52;;;;;;;0.20;0.20;;;23.90;93.60;;;;;;4992207;28;20181;-86
2022/09/11 12:12:20;;;;;;;3.13;0.52;;;23.90;94.40;;;;;;4990357;28;20615;-89
2022/09/11 12:14:53;;;;;;;1.13;1.08;;;23.80;94.00;;;;;;4991660;28;20198;-90
2022/09/11 12:17:34;;;;;;;0.70;0.70;;;23.90;94.10;;;;;;4990528;28;20174;-89
2022/09/11 12:20:08;;;;;;;0.40;0.40;;;23.80;93.20;;;;;;4991690;28;20264;-88
2022/09/11 12:22:40;;;;;;;0.50;0.50;;;23.50;93.30;;;;;;4991583;28;20177;-90
2022/09/11 12:25:29;;;;;;;0.47;0.47;;;23.30;94.10;;;;;;4992007;28;20159;-87
2022/09/11 12:28:20;;;;;;;0.40;0.40;;;23.10;94.00;;;;;;4994296;28;20185;-90
2022/09/11 12:31:03;;;;;;;0.37;0.37;;;22.90;94.40;;;;;;4992637;28;20166;-90
2022/09/11 12:33:50;;;;;;;1.70;1.60;;;22.80;94.90;;;;;;4991579;28;20509;-89
2022/09/11 12:36:32;;;;;;;0.33;0.33;;;22.70;95.00;;;;;;4998636;28;20223;-89
2022/09/11 12:39:28;;;;;;;0.30;0.30;;;22.60;94.90;;;;;;5009846;28;20177;-90
2022/09/11 12:42:24;;;;;;;0.87;0.60;;;22.40;95.10;;;;;;5009895;28;20708;-89
2022/09/11 12:44:49;;;;;;;0.60;0.60;;;22.40;95.70;;;;;;5010613;28;20180;-87
2022/09/11 12:47:26;;;;;;;0.93;0.60;;;22.50;95.70;;;;;;5010927;28;20179;-89
2022/09/11 12:50:05;;;;;;;0.23;0.23;;;22.60;95.30;;;;;;5011449;28;20252;-87
2022/09/11 12:52:46;;;;;;;0.70;0.70;;;22.10;96.00;;;;;;5010909;28;20555;-89
2022/09/11 12:55:24;;;;;;;0.30;0.30;;;21.90;95.80;;;;;;5011533;28;20522;-87
2022/09/11 12:57:50;;;;;;;0.37;0.30;;;21.60;96.20;;;;;;5010216;28;20545;-88
2022/09/11 13:00:39;;;;;;;1.10;0.20;;;21.70;96.40;;;;;;5011312;28;20180;-87
2022/09/11 13:03:16;;;;;;;0.40;0.40;;;21.70;96.10;;;;;;5009716;28;20215;-87
2022/09/11 13:05:44;;;;;;;0.73;0.47;;;21.80;96.60;;;;;;5012936;28;20157;-86
2022/09/11 13:08:20;;;;;;;1.13;0.23;;;21.80;96.20;;;;;;5012231;28;20189;-89
2022/09/11 13:10:45;;;;;;;0.20;0.20;;;22.00;96.50;;;;;;5011250;28;20199;-90
2022/09/11 13:13:39;;;;;;;0.40;0.40;;;22.00;95.30;;;;;;5010667;28;20204;-88
2022/09/11 13:16:25;;;;;;;0.33;0.33;;;22.00;95.40;;;;;;5014964;28;20165;-89
2022/09/11 13:19:06;;;;;;;0.47;0.47;;;22.10;95.10;;;;;;5010905;28;20192;-89